createdAt,value
2017-01-19T00:00:10.164Z,19.5
2017-01-19T00:02:05.221Z,19.5
2017-01-19T00:04:07.438Z,19.5
2017-01-19T00:06:07.209Z,19.5
2017-01-19T00:08:05.289Z,19.5
2017-01-19T00:10:04.983Z,19.5
2017-01-19T00:12:07.757Z,19.5
2017-01-19T00:14:08.373Z,19.5
2017-01-19T00:16:05.085Z,19.5
2017-01-19T00:18:07.483Z,19.5
2017-01-19T00:20:05.584Z,19.4
2017-01-19T00:22:10.359Z,19.5
2017-01-19T00:24:05.454Z,19.5
2017-01-19T00:26:05.165Z,19.5
2017-01-19T00:28:04.901Z,19.5
2017-01-19T00:30:04.612Z,19.5
2017-01-19T00:32:05.303Z,19.5
2017-01-19T00:34:05.051Z,19.5
2017-01-19T00:36:09.849Z,19.5
2017-01-19T00:38:05.839Z,19.5
2017-01-19T00:40:05.949Z,19.5
2017-01-19T00:42:04.609Z,19.5
2017-01-19T00:44:05.272Z,19.5
2017-01-19T00:46:04.935Z,19.4
2017-01-19T00:48:04.653Z,19.5
2017-01-19T00:50:05.546Z,19.5
2017-01-19T00:52:04.929Z,19.5
2017-01-19T00:54:04.685Z,19.5
2017-01-19T00:56:07.607Z,19.5
2017-01-19T00:58:10.480Z,19.4
2017-01-19T01:00:05.163Z,19.5
2017-01-19T01:02:05.802Z,19.5
2017-01-19T01:04:05.534Z,19.5
2017-01-19T01:06:07.724Z,19.5
2017-01-19T01:08:05.566Z,19.4
2017-01-19T01:10:09.971Z,19.5
2017-01-19T01:12:04.697Z,19.5
2017-01-19T01:14:05.737Z,19.5
2017-01-19T01:16:05.071Z,19.5
2017-01-19T01:18:05.015Z,19.5
2017-01-19T01:20:04.739Z,19.5
2017-01-19T01:22:05.459Z,19.4
2017-01-19T01:24:15.287Z,19.5
2017-01-19T01:26:05.354Z,19.4
2017-01-19T01:28:05.279Z,19.5
2017-01-19T01:30:05.084Z,19.4
2017-01-19T01:32:04.950Z,19.5
2017-01-19T01:34:04.620Z,19.5
2017-01-19T01:36:05.441Z,19.4
2017-01-19T01:38:05.428Z,19.5
2017-01-19T01:40:07.682Z,19.4
2017-01-19T01:42:05.389Z,19.4
2017-01-19T01:44:12.981Z,19.4
2017-01-19T01:46:07.198Z,19.4
2017-01-19T01:48:04.905Z,19.4
2017-01-19T01:50:07.150Z,19.4
2017-01-19T01:52:05.416Z,19.4
2017-01-19T01:54:07.651Z,19.5
2017-01-19T01:56:05.322Z,19.4
2017-01-19T01:58:05.661Z,19.4
2017-01-19T02:00:05.740Z,19.4
2017-01-19T02:02:05.169Z,19.4
2017-01-19T02:04:04.918Z,19.5
2017-01-19T02:06:04.644Z,19.5
2017-01-19T02:08:05.367Z,19.4
2017-01-19T02:10:05.095Z,19.4
2017-01-19T02:12:04.848Z,19.4
2017-01-19T02:14:05.428Z,19.4
2017-01-19T02:16:05.495Z,19.4
2017-01-19T02:18:10.560Z,19.4
2017-01-19T02:20:05.715Z,19.4
2017-01-19T02:22:05.415Z,19.5
2017-01-19T02:24:10.153Z,19.4
2017-01-19T02:26:05.287Z,19.4
2017-01-19T02:28:10.047Z,19.4
2017-01-19T02:30:04.758Z,19.4
2017-01-19T02:32:07.883Z,19.4
2017-01-19T02:34:04.650Z,19.4
2017-01-19T02:36:04.875Z,19.4
2017-01-19T02:38:08.521Z,19.4
2017-01-19T02:40:10.245Z,19.4
2017-01-19T02:42:04.949Z,19.4
2017-01-19T02:44:04.799Z,19.4
2017-01-19T02:46:05.490Z,19.4
2017-01-19T02:48:05.050Z,19.4
2017-01-19T02:50:05.309Z,19.5
2017-01-19T02:52:05.025Z,19.4
2017-01-19T02:54:04.821Z,19.4
2017-01-19T02:56:05.897Z,19.4
2017-01-19T02:58:05.169Z,19.4
2017-01-19T03:00:04.918Z,19.4
2017-01-19T03:02:04.929Z,19.4
2017-01-19T03:04:04.662Z,19.4
2017-01-19T03:06:05.381Z,19.4
2017-01-19T03:08:07.981Z,19.4
2017-01-19T03:10:05.214Z,19.4
2017-01-19T03:12:04.977Z,19.4
2017-01-19T03:14:07.599Z,19.4
2017-01-19T03:16:04.845Z,19.4
2017-01-19T03:18:04.756Z,19.4
2017-01-19T03:20:13.493Z,19.4
2017-01-19T03:22:05.045Z,19.4
2017-01-19T03:24:04.709Z,19.4
2017-01-19T03:26:08.040Z,19.4
2017-01-19T03:28:04.756Z,19.4
2017-01-19T03:30:05.491Z,19.4
2017-01-19T03:32:05.516Z,19.4
2017-01-19T03:34:05.216Z,19.4
2017-01-19T03:36:05.092Z,19.4
2017-01-19T03:38:04.923Z,19.4
2017-01-19T03:40:04.642Z,19.4
2017-01-19T03:42:10.471Z,19.4
2017-01-19T03:44:07.731Z,19.4
2017-01-19T03:46:04.632Z,19.4
2017-01-19T03:48:05.283Z,19.4
2017-01-19T03:50:05.487Z,19.4
2017-01-19T03:52:05.553Z,19.4
2017-01-19T03:54:05.285Z,19.4
2017-01-19T03:56:05.144Z,19.4
2017-01-19T03:58:04.855Z,19.4
2017-01-19T04:00:05.566Z,19.4
2017-01-19T04:02:05.623Z,19.4
2017-01-19T04:04:05.332Z,19.4
2017-01-19T04:06:04.984Z,19.4
2017-01-19T04:08:04.710Z,19.4
2017-01-19T04:10:05.420Z,19.4
2017-01-19T04:12:05.212Z,19.4
2017-01-19T04:14:05.091Z,19.4
2017-01-19T04:16:04.769Z,19.4
2017-01-19T04:18:07.206Z,19.4
2017-01-19T04:20:05.213Z,19.4
2017-01-19T04:22:05.443Z,19.4
2017-01-19T04:24:05.207Z,19.4
2017-01-19T04:26:05.158Z,19.4
2017-01-19T04:28:07.395Z,19.4
2017-01-19T04:30:05.092Z,19.4
2017-01-19T04:32:05.007Z,19.4
2017-01-19T04:34:04.681Z,19.4
2017-01-19T04:36:07.951Z,19.4
2017-01-19T04:38:05.007Z,19.4
2017-01-19T04:40:07.640Z,19.4
2017-01-19T04:42:05.342Z,19.4
2017-01-19T04:44:05.239Z,19.4
2017-01-19T04:46:04.992Z,19.4
2017-01-19T04:48:07.188Z,19.4
2017-01-19T04:50:05.048Z,19.4
2017-01-19T04:52:04.792Z,19.4
2017-01-19T04:54:05.493Z,19.4
2017-01-19T04:56:05.513Z,19.4
2017-01-19T04:58:05.274Z,19.4
2017-01-19T05:00:04.956Z,19.4
2017-01-19T05:02:05.551Z,19.4
2017-01-19T05:04:04.856Z,19.4
2017-01-19T05:06:05.547Z,19.4
2017-01-19T05:08:05.446Z,19.4
2017-01-19T05:10:05.174Z,19.4
2017-01-19T05:12:05.429Z,19.4
2017-01-19T05:14:04.678Z,19.4
2017-01-19T05:16:04.962Z,19.4
2017-01-19T05:18:10.473Z,19.4
2017-01-19T05:20:05.336Z,19.3
2017-01-19T05:22:05.085Z,19.4
2017-01-19T05:24:04.757Z,19.4
2017-01-19T05:26:04.746Z,19.3
2017-01-19T05:28:08.015Z,19.4
2017-01-19T05:30:04.780Z,19.3
2017-01-19T05:32:05.794Z,19.4
2017-01-19T05:34:05.543Z,19.4
2017-01-19T05:36:05.230Z,19.3
2017-01-19T05:38:04.917Z,19.3
2017-01-19T05:40:04.662Z,19.3
2017-01-19T05:42:10.423Z,19.3
2017-01-19T05:44:05.540Z,19.3
2017-01-19T05:46:04.811Z,19.3
2017-01-19T05:48:05.546Z,19.4
2017-01-19T05:50:04.952Z,19.3
2017-01-19T05:52:04.679Z,19.3
2017-01-19T05:54:05.468Z,19.3
2017-01-19T05:56:04.738Z,19.3
2017-01-19T05:58:05.459Z,19.3
2017-01-19T06:00:04.859Z,19.3
2017-01-19T06:02:05.567Z,19.3
2017-01-19T06:04:04.786Z,19.3
2017-01-19T06:06:05.466Z,19.3
2017-01-19T06:08:05.616Z,19.3
2017-01-19T06:10:05.366Z,19.3
2017-01-19T06:12:07.628Z,19.3
2017-01-19T06:14:05.537Z,19.3
2017-01-19T06:16:05.549Z,19.3
2017-01-19T06:18:05.547Z,19.3
2017-01-19T06:20:05.403Z,19.3
2017-01-19T06:22:04.648Z,19.3
2017-01-19T06:24:05.424Z,19.3
2017-01-19T06:26:12.456Z,19.3
2017-01-19T06:28:05.404Z,19.3
2017-01-19T06:30:05.326Z,19.3
2017-01-19T06:32:05.287Z,19.3
2017-01-19T06:34:07.522Z,19.3
2017-01-19T06:36:05.196Z,19.3
2017-01-19T06:38:05.252Z,19.3
2017-01-19T06:40:05.038Z,19.3
2017-01-19T06:42:04.729Z,19.3
2017-01-19T06:44:05.755Z,19.3
2017-01-19T06:46:05.438Z,19.3
2017-01-19T06:48:05.341Z,19.3
2017-01-19T06:50:05.433Z,19.3
2017-01-19T06:52:05.153Z,19.3
2017-01-19T06:54:05.384Z,19.3
2017-01-19T06:56:07.665Z,19.3
2017-01-19T06:58:05.366Z,19.3
2017-01-19T07:00:05.118Z,19.3
2017-01-19T07:02:05.163Z,19.3
2017-01-19T07:04:05.260Z,19.3
2017-01-19T07:06:05.017Z,19.3
2017-01-19T07:08:05.421Z,19.3
2017-01-19T07:10:05.189Z,19.3
2017-01-19T07:12:04.902Z,19.3
2017-01-19T07:14:07.498Z,19.3
2017-01-19T07:16:07.307Z,19.3
2017-01-19T07:18:05.273Z,19.2
2017-01-19T07:20:05.600Z,19.3
2017-01-19T07:22:05.326Z,19.3
2017-01-19T07:24:05.593Z,19.3
2017-01-19T07:26:05.604Z,19.3
2017-01-19T07:28:04.848Z,19.3
2017-01-19T07:30:05.563Z,19.3
2017-01-19T07:32:05.401Z,19.3
2017-01-19T07:34:10.144Z,19.2
2017-01-19T07:36:05.046Z,19.2
2017-01-19T07:38:07.511Z,19.3
2017-01-19T07:40:07.706Z,19.2
2017-01-19T07:42:07.951Z,19.3
2017-01-19T07:44:08.110Z,19.3
2017-01-19T07:46:04.846Z,19.3
2017-01-19T07:48:05.550Z,19.3
2017-01-19T07:50:05.628Z,19.3
2017-01-19T07:52:05.702Z,19.3
2017-01-19T07:54:10.520Z,19.3
2017-01-19T07:56:05.332Z,19.3
2017-01-19T07:58:05.202Z,19.3
2017-01-19T08:00:04.956Z,19.3
2017-01-19T08:02:04.863Z,19.3
2017-01-19T08:04:05.356Z,19.3
2017-01-19T08:06:05.514Z,19.3
2017-01-19T08:08:08.144Z,19.3
2017-01-19T08:10:04.647Z,19.3
2017-01-19T08:12:05.379Z,19.3
2017-01-19T08:14:05.387Z,19.3
2017-01-19T08:16:05.187Z,19.3
2017-01-19T08:18:07.625Z,19.3
2017-01-19T08:20:04.987Z,19.3
2017-01-19T08:22:04.670Z,19.3
2017-01-19T08:24:05.003Z,19.3
2017-01-19T08:26:07.280Z,19.3
2017-01-19T08:28:04.972Z,19.3
2017-01-19T08:30:04.847Z,19.3
2017-01-19T08:32:05.555Z,19.3
2017-01-19T08:34:05.338Z,19.3
2017-01-19T08:36:05.366Z,19.3
2017-01-19T08:38:05.115Z,19.4
2017-01-19T08:40:04.954Z,19.4
2017-01-19T08:42:04.689Z,19.4
2017-01-19T08:44:05.591Z,19.4
2017-01-19T08:46:07.871Z,19.4
2017-01-19T08:48:05.573Z,19.4
2017-01-19T08:50:05.269Z,19.4
2017-01-19T08:52:05.014Z,19.4
2017-01-19T08:54:07.228Z,19.4
2017-01-19T08:56:05.206Z,19.4
2017-01-19T08:58:07.475Z,19.6
2017-01-19T09:00:04.734Z,19.6
2017-01-19T09:02:05.548Z,19.8
2017-01-19T09:04:07.324Z,19.9
2017-01-19T09:06:07.563Z,20
2017-01-19T09:08:05.541Z,20
2017-01-19T09:10:05.265Z,20
2017-01-19T09:12:10.169Z,20.1
2017-01-19T09:14:05.283Z,20.1
2017-01-19T09:16:05.023Z,20.2
2017-01-19T09:18:04.956Z,20.2
2017-01-19T09:20:04.809Z,20.2
2017-01-19T09:22:06.542Z,20.2
2017-01-19T09:24:05.258Z,20.3
2017-01-19T09:26:07.777Z,20.4
2017-01-19T09:28:05.862Z,20.4
2017-01-19T09:30:05.544Z,20.5
2017-01-19T09:32:05.558Z,20.6
2017-01-19T09:34:05.278Z,20.8
2017-01-19T09:36:04.968Z,20.8
2017-01-19T09:38:04.665Z,20.8
2017-01-19T09:40:06.370Z,20.8
2017-01-19T09:42:05.130Z,20.7
2017-01-19T09:44:06.169Z,20.7
2017-01-19T09:46:09.975Z,20.6
2017-01-19T09:48:04.699Z,20.6
2017-01-19T09:50:07.953Z,20.5
2017-01-19T09:52:05.210Z,20.5
2017-01-19T09:54:04.920Z,20.4
2017-01-19T09:56:10.560Z,20.3
2017-01-19T09:58:05.327Z,20.3
2017-01-19T10:00:05.681Z,20.2
2017-01-19T10:02:05.756Z,20.2
2017-01-19T10:04:05.054Z,20.2
2017-01-19T10:06:05.276Z,20.2
2017-01-19T10:08:05.356Z,20.1
2017-01-19T10:10:05.592Z,20.1
2017-01-19T10:12:15.492Z,20.1
2017-01-19T10:14:04.764Z,20.1
2017-01-19T10:16:08.011Z,20.1
2017-01-19T10:18:05.714Z,20
2017-01-19T10:20:05.796Z,20
2017-01-19T10:22:07.599Z,20
2017-01-19T10:24:07.882Z,20
2017-01-19T10:26:05.358Z,20
2017-01-19T10:28:05.568Z,20
2017-01-19T10:30:05.248Z,20
2017-01-19T10:32:05.298Z,20
2017-01-19T10:34:05.299Z,20
2017-01-19T10:36:04.957Z,20
2017-01-19T10:38:04.801Z,20
2017-01-19T10:40:05.516Z,20
2017-01-19T10:42:05.246Z,20
2017-01-19T10:44:05.456Z,19.9
2017-01-19T10:46:07.193Z,19.9
2017-01-19T10:48:04.874Z,19.9
2017-01-19T10:50:05.566Z,19.9
2017-01-19T10:52:07.796Z,19.9
2017-01-19T10:54:10.571Z,19.9
2017-01-19T10:56:05.567Z,19.9
2017-01-19T10:58:07.315Z,19.9
2017-01-19T11:00:05.136Z,19.9
2017-01-19T11:02:04.849Z,19.9
2017-01-19T11:04:05.562Z,19.9
2017-01-19T11:06:04.818Z,19.9
2017-01-19T11:08:05.818Z,19.9
2017-01-19T11:10:08.077Z,19.9
2017-01-19T11:12:04.987Z,19.9
2017-01-19T11:14:05.525Z,19.8
2017-01-19T11:16:05.210Z,19.8
2017-01-19T11:18:04.869Z,19.8
2017-01-19T11:20:05.914Z,19.8
2017-01-19T11:22:04.661Z,19.8
2017-01-19T11:24:07.888Z,19.8
2017-01-19T11:26:11.199Z,19.8
2017-01-19T11:28:07.682Z,19.8
2017-01-19T11:30:07.886Z,19.8
2017-01-19T11:32:05.782Z,19.8
2017-01-19T11:34:05.582Z,19.8
2017-01-19T11:36:05.748Z,19.8
2017-01-19T11:38:07.690Z,19.7
2017-01-19T11:40:05.394Z,19.7
2017-01-19T11:42:05.134Z,19.7
2017-01-19T11:44:04.974Z,19.7
2017-01-19T11:46:04.747Z,19.7
2017-01-19T11:48:07.967Z,19.7
2017-01-19T11:50:04.879Z,19.6
2017-01-19T11:52:04.772Z,19.7
2017-01-19T11:54:05.571Z,19.7
2017-01-19T11:56:10.977Z,19.6
2017-01-19T11:58:05.210Z,19.7
2017-01-19T12:00:04.930Z,19.6
2017-01-19T12:02:09.815Z,19.6
2017-01-19T12:04:08.074Z,19.7
2017-01-19T12:06:04.816Z,19.6
2017-01-19T12:08:06.089Z,19.7
2017-01-19T12:10:04.784Z,19.7
2017-01-19T12:12:05.451Z,19.6
2017-01-19T12:14:07.709Z,19.6
2017-01-19T12:16:05.455Z,19.6
2017-01-19T12:18:05.373Z,19.7
2017-01-19T12:20:07.675Z,19.6
2017-01-19T12:22:05.387Z,19.6
2017-01-19T12:24:07.784Z,19.6
2017-01-19T12:26:05.798Z,19.6
2017-01-19T12:28:05.527Z,19.6
2017-01-19T12:30:07.289Z,19.6
2017-01-19T12:32:05.130Z,19.6
2017-01-19T12:34:05.407Z,19.6
2017-01-19T12:36:07.805Z,19.6
2017-01-19T12:38:05.489Z,19.6
2017-01-19T12:40:05.346Z,19.6
2017-01-19T12:42:05.091Z,19.5
2017-01-19T12:44:05.356Z,19.6
2017-01-19T12:46:05.336Z,19.6
2017-01-19T12:48:05.098Z,19.5
2017-01-19T12:50:04.884Z,19.5
2017-01-19T12:52:09.660Z,19.5
2017-01-19T12:54:05.408Z,19.5
2017-01-19T12:56:05.043Z,19.5
2017-01-19T12:58:07.313Z,19.5
2017-01-19T13:00:05.018Z,19.5
2017-01-19T13:02:10.641Z,19.5
2017-01-19T13:04:05.341Z,19.5
2017-01-19T13:06:10.384Z,19.5
2017-01-19T13:08:08.001Z,19.5
2017-01-19T13:10:04.786Z,19.5
2017-01-19T13:12:10.117Z,19.6
2017-01-19T13:14:04.995Z,19.6
2017-01-19T13:16:04.713Z,19.6
2017-01-19T13:18:07.755Z,19.6
2017-01-19T13:20:05.627Z,19.6
2017-01-19T13:22:05.356Z,19.6
2017-01-19T13:24:07.661Z,19.6
2017-01-19T13:26:05.017Z,19.6
2017-01-19T13:28:04.892Z,19.7
2017-01-19T13:30:04.665Z,19.6
2017-01-19T13:32:08.044Z,19.7
2017-01-19T13:34:07.800Z,19.7
2017-01-19T13:36:13.140Z,19.7
2017-01-19T13:38:05.293Z,19.7
2017-01-19T13:40:05.587Z,19.7
2017-01-19T13:42:05.510Z,19.7
2017-01-19T13:44:06.012Z,19.7
2017-01-19T13:46:04.702Z,19.7
2017-01-19T13:48:05.670Z,19.7
2017-01-19T13:50:05.353Z,19.7
2017-01-19T13:52:05.068Z,19.7
2017-01-19T13:54:04.800Z,19.7
2017-01-19T13:56:05.751Z,19.7
2017-01-19T13:58:04.677Z,19.8
2017-01-19T14:00:05.507Z,19.8
2017-01-19T14:02:05.347Z,19.8
2017-01-19T14:04:07.577Z,19.8
2017-01-19T14:06:05.353Z,19.8
2017-01-19T14:08:07.943Z,19.8
2017-01-19T14:10:04.651Z,19.8
2017-01-19T14:12:07.960Z,19.8
2017-01-19T14:14:04.826Z,19.8
2017-01-19T14:16:05.932Z,19.8
2017-01-19T14:18:04.780Z,19.8
2017-01-19T14:20:04.694Z,19.8
2017-01-19T14:22:05.378Z,19.8
2017-01-19T14:24:05.278Z,19.8
2017-01-19T14:26:05.129Z,19.8
2017-01-19T14:28:04.807Z,19.8
2017-01-19T14:30:05.512Z,19.9
2017-01-19T14:32:05.428Z,19.9
2017-01-19T14:34:05.170Z,19.9
2017-01-19T14:36:05.880Z,19.8
2017-01-19T14:38:10.493Z,19.8
2017-01-19T14:40:05.227Z,19.9
2017-01-19T14:42:05.566Z,19.8
2017-01-19T14:44:05.664Z,19.8
2017-01-19T14:46:04.853Z,19.7
2017-01-19T14:48:08.452Z,19.7
2017-01-19T14:50:07.382Z,19.7
2017-01-19T14:52:05.074Z,19.7
2017-01-19T14:54:05.298Z,19.7
2017-01-19T14:56:05.382Z,19.7
2017-01-19T14:58:05.499Z,19.7
2017-01-19T15:00:07.782Z,19.6
2017-01-19T15:02:05.514Z,19.7
2017-01-19T15:04:05.705Z,19.7
2017-01-19T15:06:07.962Z,19.6
2017-01-19T15:08:07.303Z,19.6
2017-01-19T15:10:07.506Z,19.6
2017-01-19T15:12:05.440Z,19.6
2017-01-19T15:14:07.932Z,19.6
2017-01-19T15:16:04.859Z,19.6
2017-01-19T15:18:08.303Z,19.6
2017-01-19T15:20:05.039Z,19.5
2017-01-19T15:22:06.358Z,19.6
2017-01-19T15:24:04.776Z,19.6
2017-01-19T15:26:08.369Z,19.6
2017-01-19T15:28:05.065Z,19.5
2017-01-19T15:30:04.811Z,19.6
2017-01-19T15:32:05.856Z,19.6
2017-01-19T15:34:04.795Z,19.6
2017-01-19T15:36:05.531Z,19.6
2017-01-19T15:38:05.618Z,19.7
2017-01-19T15:40:10.373Z,19.7
2017-01-19T15:42:05.061Z,19.6
2017-01-19T15:44:07.753Z,19.6
2017-01-19T15:46:05.438Z,19.7
2017-01-19T15:48:05.127Z,19.7
2017-01-19T15:50:10.054Z,19.6
2017-01-19T15:52:05.778Z,19.6
2017-01-19T15:54:04.962Z,19.7
2017-01-19T15:56:09.805Z,19.6
2017-01-19T15:58:10.579Z,19.6
2017-01-19T16:00:05.277Z,19.7
2017-01-19T16:02:05.088Z,19.7
2017-01-19T16:04:04.798Z,19.7
2017-01-19T16:06:05.591Z,19.7
2017-01-19T16:08:05.606Z,19.6
2017-01-19T16:10:05.383Z,19.7
2017-01-19T16:12:05.278Z,19.6
2017-01-19T16:14:05.525Z,19.6
2017-01-19T16:16:05.212Z,19.6
2017-01-19T16:18:05.163Z,19.6
2017-01-19T16:20:05.431Z,19.6
2017-01-19T16:22:07.712Z,19.6
2017-01-19T16:24:05.832Z,19.6
2017-01-19T16:26:08.231Z,19.6
2017-01-19T16:28:04.955Z,19.6
2017-01-19T16:30:04.684Z,19.6
2017-01-19T16:32:05.558Z,19.6
2017-01-19T16:34:07.333Z,19.6
2017-01-19T16:36:05.009Z,19.6
2017-01-19T16:38:04.921Z,19.6
2017-01-19T16:40:07.503Z,19.6
2017-01-19T16:42:07.279Z,19.6
2017-01-19T16:44:10.039Z,19.6
2017-01-19T16:46:04.860Z,19.6
2017-01-19T16:48:04.815Z,19.6
2017-01-19T16:50:06.908Z,19.6
2017-01-19T16:52:04.637Z,19.6
2017-01-19T16:54:05.352Z,19.6
2017-01-19T16:56:05.232Z,19.6
2017-01-19T16:58:05.458Z,19.6
2017-01-19T17:00:10.222Z,19.6
2017-01-19T17:02:05.333Z,19.6
2017-01-19T17:04:05.051Z,19.6
2017-01-19T17:06:10.152Z,19.7
2017-01-19T17:08:10.061Z,19.7
2017-01-19T17:10:07.405Z,19.7
2017-01-19T17:12:10.629Z,19.6
2017-01-19T17:14:05.323Z,19.6
2017-01-19T17:16:05.107Z,19.7
2017-01-19T17:18:05.722Z,19.7
2017-01-19T17:20:05.436Z,19.7
2017-01-19T17:22:05.252Z,19.7
2017-01-19T17:24:04.921Z,19.7
2017-01-19T17:26:07.155Z,19.7
2017-01-19T17:28:07.871Z,19.8
2017-01-19T17:30:04.623Z,19.8
2017-01-19T17:32:04.967Z,19.8
2017-01-19T17:34:05.351Z,19.7
2017-01-19T17:36:07.649Z,19.8
2017-01-19T17:38:05.062Z,19.8
2017-01-19T17:40:04.828Z,19.8
2017-01-19T17:42:08.063Z,19.8
2017-01-19T17:44:05.153Z,19.8
2017-01-19T17:46:07.418Z,19.8
2017-01-19T17:48:05.178Z,19.8
2017-01-19T17:50:07.473Z,19.9
2017-01-19T17:52:05.169Z,19.8
2017-01-19T17:54:05.365Z,19.9
2017-01-19T17:56:04.873Z,19.9
2017-01-19T17:58:05.567Z,19.9
2017-01-19T18:00:05.438Z,19.9
2017-01-19T18:02:07.790Z,19.9
2017-01-19T18:04:15.216Z,19.9
2017-01-19T18:06:05.000Z,19.9
2017-01-19T18:08:04.845Z,19.9
2017-01-19T18:10:05.063Z,19.9
2017-01-19T18:12:04.822Z,19.9
2017-01-19T18:14:05.706Z,19.9
2017-01-19T18:16:05.786Z,19.9
2017-01-19T18:18:09.822Z,19.9
2017-01-19T18:20:05.506Z,19.9
2017-01-19T18:22:04.698Z,19.9
2017-01-19T18:24:08.321Z,19.9
2017-01-19T18:26:05.056Z,19.9
2017-01-19T18:28:04.787Z,19.9
2017-01-19T18:30:07.315Z,19.9
2017-01-19T18:32:05.239Z,19.9
2017-01-19T18:34:05.082Z,19.9
2017-01-19T18:36:04.932Z,19.9
2017-01-19T18:38:12.593Z,19.9
2017-01-19T18:40:05.439Z,19.9
2017-01-19T18:42:05.520Z,19.9
2017-01-19T18:44:05.015Z,19.9
2017-01-19T18:46:05.321Z,19.9
2017-01-19T18:48:07.819Z,19.9
2017-01-19T18:50:05.868Z,19.9
2017-01-19T18:52:05.126Z,19.9
2017-01-19T18:54:04.902Z,19.9
2017-01-19T18:56:04.779Z,19.9
2017-01-19T18:58:05.491Z,20
2017-01-19T19:00:05.332Z,20
2017-01-19T19:02:05.943Z,20
2017-01-19T19:04:04.986Z,20
2017-01-19T19:06:07.501Z,20
2017-01-19T19:08:05.306Z,20
2017-01-19T19:10:05.082Z,20
2017-01-19T19:12:04.795Z,20.1
2017-01-19T19:14:05.581Z,20.1
2017-01-19T19:16:05.336Z,20.1
2017-01-19T19:18:08.027Z,20.1
2017-01-19T19:20:08.069Z,20.1
2017-01-19T19:22:04.876Z,20.1
2017-01-19T19:24:05.665Z,20.1
2017-01-19T19:26:08.312Z,20.1
2017-01-19T19:28:05.055Z,20.1
2017-01-19T19:30:04.791Z,20.2
2017-01-19T19:32:05.537Z,20.2
2017-01-19T19:34:05.343Z,20.2
2017-01-19T19:36:07.872Z,20.2
2017-01-19T19:38:04.768Z,20.2
2017-01-19T19:40:05.584Z,20.2
2017-01-19T19:42:05.320Z,20.2
2017-01-19T19:44:05.140Z,20.2
2017-01-19T19:46:09.903Z,20.2
2017-01-19T19:48:04.716Z,20.2
2017-01-19T19:50:15.206Z,20.2
2017-01-19T19:52:05.306Z,20.2
2017-01-19T19:54:10.283Z,20.2
2017-01-19T19:56:05.532Z,20.2
2017-01-19T19:58:07.783Z,20.2
2017-01-19T20:00:05.085Z,20.2
2017-01-19T20:02:05.246Z,20.3
2017-01-19T20:04:10.024Z,20.2
2017-01-19T20:06:04.887Z,20.2
2017-01-19T20:08:07.663Z,20.3
2017-01-19T20:10:05.412Z,20.3
2017-01-19T20:12:07.668Z,20.2
2017-01-19T20:14:05.667Z,20.2
2017-01-19T20:16:05.398Z,20.2
2017-01-19T20:18:05.409Z,20.3
2017-01-19T20:20:12.580Z,20.3
2017-01-19T20:22:12.870Z,20.3
2017-01-19T20:24:04.661Z,20.3
2017-01-19T20:26:08.390Z,20.3
2017-01-19T20:28:05.184Z,20.3
2017-01-19T20:30:04.867Z,20.3
2017-01-19T20:32:12.463Z,20.3
2017-01-19T20:34:05.166Z,20.3
2017-01-19T20:36:04.871Z,20.3
2017-01-19T20:38:08.444Z,20.3
2017-01-19T20:40:10.318Z,20.3
2017-01-19T20:42:05.604Z,20.3
2017-01-19T20:44:05.908Z,20.3
2017-01-19T20:46:07.799Z,20.3
2017-01-19T20:48:10.572Z,20.3
2017-01-19T20:50:05.465Z,20.3
2017-01-19T20:52:05.216Z,20.4
2017-01-19T20:54:04.935Z,20.3
2017-01-19T20:56:04.954Z,20.3
2017-01-19T20:58:07.438Z,20.4
2017-01-19T21:00:10.122Z,20.3
2017-01-19T21:02:15.614Z,20.3
2017-01-19T21:04:05.357Z,20.4
2017-01-19T21:06:05.142Z,20.4
2017-01-19T21:08:05.129Z,20.4
2017-01-19T21:10:07.557Z,14
2017-01-19T21:12:13.057Z,20.4
2017-01-19T21:14:07.659Z,20.4
2017-01-19T21:16:05.121Z,20.4
2017-01-19T21:18:07.569Z,20.4
2017-01-19T21:20:05.298Z,20.3
2017-01-19T21:22:15.194Z,20.4
2017-01-19T21:24:05.504Z,20.3
2017-01-19T21:26:05.295Z,20.4
2017-01-19T21:28:07.819Z,20.4
2017-01-19T21:30:05.515Z,20.4
2017-01-19T21:32:05.768Z,20.4
2017-01-19T21:34:05.555Z,20.3
2017-01-19T21:36:05.277Z,20.3
2017-01-19T21:38:05.512Z,20.4
2017-01-19T21:40:05.468Z,20.4
2017-01-19T21:42:07.752Z,20.4
2017-01-19T21:44:05.812Z,20.4
2017-01-19T21:46:05.079Z,20.4
2017-01-19T21:48:05.179Z,20.4
2017-01-19T21:50:05.046Z,20.4
2017-01-19T21:52:05.327Z,20.4
2017-01-19T21:54:05.129Z,20.4
2017-01-19T21:56:04.871Z,20.4
2017-01-19T21:58:05.796Z,20.4
2017-01-19T22:00:05.589Z,20.4
2017-01-19T22:02:07.756Z,20.4
2017-01-19T22:04:04.984Z,20.4
2017-01-19T22:06:05.404Z,20.4
2017-01-19T22:08:04.963Z,20.4
2017-01-19T22:10:07.725Z,20.4
2017-01-19T22:12:07.960Z,20.4
2017-01-19T22:14:05.083Z,20.4
2017-01-19T22:16:07.434Z,20.4
2017-01-19T22:18:05.366Z,20.4
2017-01-19T22:20:07.734Z,20.3
2017-01-19T22:22:05.702Z,20.3
2017-01-19T22:24:05.370Z,20.4
2017-01-19T22:26:05.441Z,20.4
2017-01-19T22:28:05.131Z,20.4
2017-01-19T22:30:04.802Z,20.4
2017-01-19T22:32:05.689Z,20.4
2017-01-19T22:34:04.927Z,20.4
2017-01-19T22:36:05.587Z,20.4
2017-01-19T22:38:05.459Z,20.4
2017-01-19T22:40:04.735Z,20.3
2017-01-19T22:42:05.492Z,20.3
2017-01-19T22:44:05.337Z,20.4
2017-01-19T22:46:05.026Z,20.4
2017-01-19T22:48:05.142Z,20.4
2017-01-19T22:50:05.220Z,20.4
2017-01-19T22:52:04.939Z,20.4
2017-01-19T22:54:04.706Z,20.4
2017-01-19T22:56:05.498Z,20.4
2017-01-19T22:58:05.222Z,20.4
2017-01-19T23:00:12.539Z,20.3
2017-01-19T23:02:05.335Z,20.4
2017-01-19T23:04:05.114Z,20.3
2017-01-19T23:06:04.843Z,20.3
2017-01-19T23:08:05.589Z,20.3
2017-01-19T23:10:05.333Z,20.3
2017-01-19T23:12:05.007Z,20.3
2017-01-19T23:14:07.531Z,20.3
2017-01-19T23:16:05.325Z,20.3
2017-01-19T23:18:05.323Z,20.3
2017-01-19T23:20:05.433Z,20.3
2017-01-19T23:22:04.730Z,20.2
2017-01-19T23:24:05.051Z,20.3
2017-01-19T23:26:05.195Z,20.2
2017-01-19T23:28:05.399Z,20.2
2017-01-19T23:30:05.177Z,20.2
2017-01-19T23:32:04.925Z,20.2
2017-01-19T23:34:04.621Z,20.2
2017-01-19T23:36:05.681Z,20.2
2017-01-19T23:38:05.524Z,20.2
2017-01-19T23:40:05.285Z,20.2
2017-01-19T23:42:04.992Z,20.2
2017-01-19T23:44:04.715Z,20.2
2017-01-19T23:46:05.482Z,20.2
2017-01-19T23:48:12.901Z,20.2
2017-01-19T23:50:05.596Z,20.2
2017-01-19T23:52:05.663Z,20.2
2017-01-19T23:54:05.351Z,20.2
2017-01-19T23:56:05.388Z,20.2
2017-01-19T23:58:10.176Z,20.2
